PRIVATE WETTERSTATION BILLIGHEIM-ALLFELD                       ZURCK
Wetterdaten: Samstag, 11.03.2017
Datum Zeit Temp. A. Temp. A. min Temp. A. max Feuchte A. Luftdruck Regen Wind Richtung Richtung Sonnenschein ET Solar Taupunkt Windchill Windben Empfang
11.03.2017 00:00 0,6 C 0,6 C 0,8 C 89 % 1026,5 hPa 0,0 l/m 0,0 km/h (0 Bft) W-NW 292 0 min 0,000 mm 0 W/m -1,0 C 0,6 C 3,2 km/h (1 Bft) 97 %
11.03.2017 00:10 0,5 C 0,5 C 0,6 C 90 % 1026,5 hPa 0,0 l/m 0,0 km/h (0 Bft) W-NW 292 0 min 0,000 mm 0 W/m -0,9 C 0,5 C 1,6 km/h (1 Bft) 97 %
11.03.2017 00:20 0,4 C 0,4 C 0,5 C 90 % 1026,6 hPa 0,0 l/m 1,6 km/h (1 Bft) W-NW 292 0 min 0,000 mm 0 W/m -1,0 C 0,4 C 4,8 km/h (1 Bft) 97 %
11.03.2017 00:30 0,4 C 0,4 C 0,4 C 90 % 1026,5 hPa 0,0 l/m 0,0 km/h (0 Bft) N 0 0 min 0,000 mm 0 W/m -1,0 C 0,4 C 0,0 km/h (0 Bft) 98 %
11.03.2017 00:40 0,3 C 0,3 C 0,4 C 90 % 1026,3 hPa 0,0 l/m 0,0 km/h (0 Bft) N 0 0 min 0,000 mm 0 W/m -1,1 C 0,3 C 0,0 km/h (0 Bft) 98 %
11.03.2017 00:50 0,3 C 0,3 C 0,3 C 90 % 1026,3 hPa 0,0 l/m 0,0 km/h (0 Bft) W-NW 292 0 min 0,000 mm 0 W/m -1,1 C 0,3 C 3,2 km/h (1 Bft) 97 %
11.03.2017 01:00 0,6 C 0,3 C 0,6 C 90 % 1026,2 hPa 0,0 l/m 0,0 km/h (0 Bft) NW 315 0 min 0,000 mm 0 W/m -0,8 C 0,6 C 4,8 km/h (1 Bft) 100 %
11.03.2017 01:10 0,8 C 0,6 C 0,8 C 90 % 1026,2 hPa 0,0 l/m 0,0 km/h (0 Bft) NW 315 0 min 0,000 mm 0 W/m -0,6 C 0,8 C 3,2 km/h (1 Bft) 100 %
11.03.2017 01:20 0,8 C 0,8 C 0,8 C 89 % 1026,2 hPa 0,0 l/m 1,6 km/h (1 Bft) NW 315 0 min 0,000 mm 0 W/m -0,8 C 0,8 C 6,4 km/h (2 Bft) 100 %
11.03.2017 01:30 0,8 C 0,8 C 0,8 C 89 % 1026,2 hPa 0,0 l/m 1,6 km/h (1 Bft) NW 315 0 min 0,000 mm 0 W/m -0,8 C 0,8 C 6,4 km/h (2 Bft) 100 %
11.03.2017 01:40 0,7 C 0,7 C 0,8 C 89 % 1026,2 hPa 0,0 l/m 0,0 km/h (0 Bft) NW 315 0 min 0,000 mm 0 W/m -0,9 C 0,7 C 3,2 km/h (1 Bft) 100 %
11.03.2017 01:50 0,6 C 0,6 C 0,7 C 89 % 1026,2 hPa 0,0 l/m 0,0 km/h (0 Bft) NW 315 0 min 0,000 mm 0 W/m -1,0 C 0,6 C 4,8 km/h (1 Bft) 100 %
11.03.2017 02:00 0,5 C 0,5 C 0,6 C 89 % 1026,1 hPa 0,0 l/m 0,0 km/h (0 Bft) NW 315 0 min 0,000 mm 0 W/m -1,1 C 0,5 C 3,2 km/h (1 Bft) 100 %
11.03.2017 02:10 0,4 C 0,4 C 0,5 C 90 % 1026,0 hPa 0,0 l/m 0,0 km/h (0 Bft) N 0 0 min 0,000 mm 0 W/m -1,0 C 0,4 C 0,0 km/h (0 Bft) 100 %
11.03.2017 02:20 0,3 C 0,3 C 0,4 C 90 % 1026,0 hPa 0,0 l/m 0,0 km/h (0 Bft) NW 315 0 min 0,000 mm 0 W/m -1,1 C 0,3 C 1,6 km/h (1 Bft) 100 %
11.03.2017 02:30 0,3 C 0,3 C 0,3 C 90 % 1025,8 hPa 0,0 l/m 0,0 km/h (0 Bft) N 0 0 min 0,000 mm 0 W/m -1,1 C 0,3 C 0,0 km/h (0 Bft) 100 %
11.03.2017 02:40 0,3 C 0,3 C 0,3 C 89 % 1025,8 hPa 0,0 l/m 0,0 km/h (0 Bft) N 0 0 min 0,000 mm 0 W/m -1,3 C 0,3 C 0,0 km/h (0 Bft) 100 %
11.03.2017 02:50 0,1 C 0,1 C 0,3 C 89 % 1025,7 hPa 0,0 l/m 0,0 km/h (0 Bft) N 0 0 min 0,000 mm 0 W/m -1,5 C 0,1 C 0,0 km/h (0 Bft) 100 %
11.03.2017 03:00 -0,2 C -0,2 C 0,1 C 90 % 1025,5 hPa 0,0 l/m 0,0 km/h (0 Bft) N 0 0 min 0,000 mm 0 W/m -1,6 C -0,2 C 0,0 km/h (0 Bft) 100 %
11.03.2017 03:10 -0,6 C -0,6 C -0,2 C 90 % 1025,4 hPa 0,0 l/m 0,0 km/h (0 Bft) N 0 0 min 0,000 mm 0 W/m -2,0 C -0,6 C 0,0 km/h (0 Bft) 100 %
11.03.2017 03:20 -0,8 C -0,8 C -0,6 C 90 % 1025,4 hPa 0,0 l/m 0,0 km/h (0 Bft) N 0 0 min 0,000 mm 0 W/m -2,2 C -0,8 C 0,0 km/h (0 Bft) 100 %
11.03.2017 03:30 -1,0 C -1,0 C -0,8 C 91 % 1025,3 hPa 0,0 l/m 0,0 km/h (0 Bft) NW 315 0 min 0,000 mm 0 W/m -2,3 C -1,0 C 4,8 km/h (1 Bft) 100 %
11.03.2017 03:40 -1,1 C -1,1 C -1,0 C 91 % 1025,2 hPa 0,0 l/m 1,6 km/h (1 Bft) NW 315 0 min 0,000 mm 0 W/m -2,4 C -1,1 C 3,2 km/h (1 Bft) 100 %
11.03.2017 03:50 -1,1 C -1,1 C -1,1 C 91 % 1025,2 hPa 0,0 l/m 3,2 km/h (1 Bft) NW 315 0 min 0,000 mm 0 W/m -2,4 C -1,1 C 6,4 km/h (2 Bft) 100 %
11.03.2017 04:00 -1,1 C -1,1 C -1,0 C 91 % 1025,1 hPa 0,0 l/m 0,0 km/h (0 Bft) N 0 0 min 0,000 mm 0 W/m -2,4 C -1,1 C 0,0 km/h (0 Bft) 100 %
11.03.2017 04:10 -1,2 C -1,2 C -1,1 C 91 % 1024,8 hPa 0,0 l/m 0,0 km/h (0 Bft) NW 315 0 min 0,000 mm 0 W/m -2,5 C -1,2 C 8,0 km/h (2 Bft) 100 %
11.03.2017 04:20 -1,2 C -1,2 C -1,1 C 91 % 1024,8 hPa 0,0 l/m 0,0 km/h (0 Bft) NW 315 0 min 0,000 mm 0 W/m -2,5 C -1,2 C 1,6 km/h (1 Bft) 100 %
11.03.2017 04:30 -1,2 C -1,2 C -1,2 C 91 % 1024,7 hPa 0,0 l/m 1,6 km/h (1 Bft) NW 315 0 min 0,000 mm 0 W/m -2,5 C -1,2 C 4,8 km/h (1 Bft) 100 %
11.03.2017 04:40 -1,2 C -1,2 C -1,2 C 91 % 1024,7 hPa 0,0 l/m 1,6 km/h (1 Bft) NW 315 0 min 0,000 mm 0 W/m -2,5 C -1,2 C 6,4 km/h (2 Bft) 90 %
11.03.2017 04:50 -1,2 C -1,2 C -1,2 C 91 % 1024,6 hPa 0,0 l/m 0,0 km/h (0 Bft) N 0 0 min 0,000 mm 0 W/m -2,5 C -1,2 C 0,0 km/h (0 Bft) 100 %
11.03.2017 05:00 -1,2 C -1,2 C -1,2 C 91 % 1024,5 hPa 0,0 l/m 0,0 km/h (0 Bft) NW 315 0 min 0,000 mm 0 W/m -2,5 C -1,2 C 4,8 km/h (1 Bft) 99 %
11.03.2017 05:10 -1,1 C -1,2 C -1,1 C 91 % 1024,7 hPa 0,0 l/m 1,6 km/h (1 Bft) NW 315 0 min 0,000 mm 0 W/m -2,4 C -1,1 C 6,4 km/h (2 Bft) 100 %
11.03.2017 05:20 -1,1 C -1,1 C -1,1 C 91 % 1024,7 hPa 0,0 l/m 0,0 km/h (0 Bft) N 0 0 min 0,000 mm 0 W/m -2,4 C -1,1 C 0,0 km/h (0 Bft) 100 %
11.03.2017 05:30 -1,2 C -1,2 C -1,1 C 91 % 1024,5 hPa 0,0 l/m 0,0 km/h (0 Bft) NW 315 0 min 0,000 mm 0 W/m -2,5 C -1,2 C 3,2 km/h (1 Bft) 100 %
11.03.2017 05:40 -1,2 C -1,3 C -1,2 C 91 % 1024,4 hPa 0,0 l/m 0,0 km/h (0 Bft) NW 315 0 min 0,000 mm 0 W/m -2,5 C -1,2 C 3,2 km/h (1 Bft) 100 %
11.03.2017 05:50 -1,2 C -1,3 C -1,2 C 91 % 1024,2 hPa 0,0 l/m 0,0 km/h (0 Bft) N-NW 337 0 min 0,000 mm 0 W/m -2,5 C -1,2 C 4,8 km/h (1 Bft) 89 %
11.03.2017 06:00 -1,1 C -1,2 C -1,1 C 91 % 1024,2 hPa 0,0 l/m 1,6 km/h (1 Bft) N-NW 337 0 min 0,000 mm 0 W/m -2,4 C -1,1 C 4,8 km/h (1 Bft) 100 %
11.03.2017 06:10 -1,1 C -1,1 C -1,1 C 91 % 1024,3 hPa 0,0 l/m 1,6 km/h (1 Bft) NW 315 0 min 0,000 mm 0 W/m -2,4 C -1,1 C 4,8 km/h (1 Bft) 100 %
11.03.2017 06:20 -1,1 C -1,1 C -1,0 C 91 % 1024,3 hPa 0,0 l/m 0,0 km/h (0 Bft) NW 315 0 min 0,000 mm 0 W/m -2,4 C -1,1 C 6,4 km/h (2 Bft) 100 %
11.03.2017 06:30 -1,1 C -1,1 C -1,1 C 91 % 1024,4 hPa 0,0 l/m 1,6 km/h (1 Bft) NW 315 0 min 0,000 mm 0 W/m -2,4 C -1,1 C 6,4 km/h (2 Bft) 100 %
11.03.2017 06:40 -1,1 C -1,1 C -1,0 C 92 % 1024,5 hPa 0,0 l/m 1,6 km/h (1 Bft) NW 315 0 min 0,000 mm 0 W/m -2,2 C -1,1 C 4,8 km/h (1 Bft) 100 %
11.03.2017 06:50 -1,0 C -1,1 C -1,0 C 91 % 1024,3 hPa 0,0 l/m 0,0 km/h (0 Bft) N 0 0 min 0,000 mm 5 W/m -2,3 C -1,0 C 0,0 km/h (0 Bft) 100 %
11.03.2017 07:00 -0,9 C -1,0 C -0,9 C 91 % 1024,3 hPa 0,0 l/m 0,0 km/h (0 Bft) N 0 0 min 0,000 mm 9 W/m -2,2 C -0,9 C 0,0 km/h (0 Bft) 100 %
11.03.2017 07:10 -0,8 C -0,9 C -0,8 C 91 % 1024,3 hPa 0,0 l/m 0,0 km/h (0 Bft) NW 315 0 min 0,000 mm 12 W/m -2,1 C -0,8 C 4,8 km/h (1 Bft) 100 %
11.03.2017 07:20 -0,7 C -0,8 C -0,7 C 91 % 1024,3 hPa 0,0 l/m 0,0 km/h (0 Bft) NW 315 0 min 0,000 mm 18 W/m -2,0 C -0,7 C 3,2 km/h (1 Bft) 100 %
11.03.2017 07:30 -0,7 C -0,7 C -0,7 C 91 % 1024,2 hPa 0,0 l/m 0,0 km/h (0 Bft) N 0 0 min 0,000 mm 21 W/m -2,0 C -0,7 C 0,0 km/h (0 Bft) 100 %
11.03.2017 07:40 -0,5 C -0,7 C -0,5 C 91 % 1024,1 hPa 0,0 l/m 0,0 km/h (0 Bft) NW 315 0 min 0,000 mm 35 W/m -1,8 C -0,5 C 3,2 km/h (1 Bft) 100 %
11.03.2017 07:50 -0,3 C -0,5 C -0,3 C 91 % 1024,0 hPa 0,0 l/m 0,0 km/h (0 Bft) NW 315 0 min 0,000 mm 28 W/m -1,6 C -0,3 C 4,8 km/h (1 Bft) 100 %
11.03.2017 08:00 0,1 C -0,3 C 0,1 C 91 % 1023,9 hPa 0,0 l/m 0,0 km/h (0 Bft) O 90 0 min 0,000 mm 39 W/m -1,2 C 0,1 C 6,4 km/h (2 Bft) 100 %
11.03.2017 08:10 0,8 C 0,1 C 0,8 C 89 % 1023,9 hPa 0,0 l/m 0,0 km/h (0 Bft) O 90 10 min 0,000 mm 183 W/m -0,8 C 0,8 C 9,7 km/h (2 Bft) 100 %
11.03.2017 08:20 1,5 C 0,8 C 1,5 C 88 % 1023,9 hPa 0,0 l/m 0,0 km/h (0 Bft) N 0 10 min 0,000 mm 211 W/m -0,3 C 1,5 C 0,0 km/h (0 Bft) 100 %
11.03.2017 08:30 2,2 C 1,5 C 2,2 C 87 % 1023,8 hPa 0,0 l/m 0,0 km/h (0 Bft) N 0 10 min 0,000 mm 236 W/m 0,3 C 2,2 C 0,0 km/h (0 Bft) 100 %
11.03.2017 08:40 2,8 C 2,2 C 2,8 C 85 % 1023,7 hPa 0,0 l/m 0,0 km/h (0 Bft) N 0 10 min 0,000 mm 260 W/m 0,5 C 2,8 C 0,0 km/h (0 Bft) 100 %
11.03.2017 08:50 3,6 C 2,8 C 3,6 C 84 % 1023,6 hPa 0,0 l/m 0,0 km/h (0 Bft) N 0 10 min 0,000 mm 295 W/m 1,2 C 3,6 C 0,0 km/h (0 Bft) 100 %
11.03.2017 09:00 4,5 C 3,6 C 4,5 C 81 % 1023,4 hPa 0,0 l/m 0,0 km/h (0 Bft) N 0 10 min 0,076 mm 325 W/m 1,5 C 4,5 C 0,0 km/h (0 Bft) 100 %
11.03.2017 09:10 5,3 C 4,5 C 5,3 C 77 % 1023,5 hPa 0,0 l/m 0,0 km/h (0 Bft) N 0 10 min 0,000 mm 348 W/m 1,6 C 5,3 C 0,0 km/h (0 Bft) 100 %
11.03.2017 09:20 5,9 C 5,3 C 5,9 C 76 % 1023,5 hPa 0,0 l/m 0,0 km/h (0 Bft) N 0 10 min 0,000 mm 385 W/m 2,0 C 5,9 C 0,0 km/h (0 Bft) 100 %
11.03.2017 09:30 6,8 C 5,9 C 6,8 C 73 % 1023,6 hPa 0,0 l/m 0,0 km/h (0 Bft) N 0 10 min 0,000 mm 519 W/m 2,3 C 6,8 C 0,0 km/h (0 Bft) 100 %
11.03.2017 09:40 7,9 C 6,8 C 7,9 C 71 % 1023,6 hPa 0,0 l/m 0,0 km/h (0 Bft) N 360 10 min 0,000 mm 580 W/m 3,0 C 7,9 C 1,6 km/h (1 Bft) 100 %
11.03.2017 09:50 8,0 C 7,9 C 8,1 C 68 % 1023,6 hPa 0,0 l/m 0,0 km/h (0 Bft) N-NW 337 10 min 0,000 mm 297 W/m 2,5 C 8,0 C 1,6 km/h (1 Bft) 100 %
11.03.2017 10:00 7,8 C 7,8 C 8,0 C 69 % 1023,4 hPa 0,0 l/m 0,0 km/h (0 Bft) N 0 10 min 0,152 mm 236 W/m 2,5 C 7,8 C 0,0 km/h (0 Bft) 100 %
11.03.2017 10:10 7,4 C 7,4 C 7,8 C 69 % 1023,3 hPa 0,0 l/m 1,6 km/h (1 Bft) N 360 10 min 0,000 mm 308 W/m 2,1 C 7,4 C 6,4 km/h (2 Bft) 100 %
11.03.2017 10:20 7,6 C 7,4 C 7,6 C 65 % 1023,4 hPa 0,0 l/m 1,6 km/h (1 Bft) SO 135 10 min 0,000 mm 385 W/m 1,5 C 7,6 C 4,8 km/h (1 Bft) 100 %
11.03.2017 10:30 7,8 C 7,6 C 7,8 C 67 % 1023,1 hPa 0,0 l/m 0,0 km/h (0 Bft) O-SO 112 10 min 0,000 mm 359 W/m 2,1 C 7,8 C 4,8 km/h (1 Bft) 100 %
11.03.2017 10:40 7,9 C 7,8 C 7,9 C 65 % 1023,2 hPa 0,0 l/m 0,0 km/h (0 Bft) O-SO 112 10 min 0,000 mm 260 W/m 1,7 C 7,9 C 6,4 km/h (2 Bft) 100 %
11.03.2017 10:50 7,9 C 7,9 C 7,9 C 68 % 1023,0 hPa 0,0 l/m 1,6 km/h (1 Bft) O-SO 112 10 min 0,000 mm 288 W/m 2,4 C 7,9 C 6,4 km/h (2 Bft) 100 %
11.03.2017 11:00 8,2 C 7,9 C 8,2 C 69 % 1022,9 hPa 0,0 l/m 0,0 km/h (0 Bft) O-SO 106 10 min 0,128 mm 387 W/m 2,9 C 8,2 C 0,0 km/h (0 Bft) 99 %
11.03.2017 11:10 8,7 C 8,2 C 8,7 C 67 % 1022,7 hPa 0,0 l/m 1,0 km/h (0 Bft) N-NO 13 10 min 0,000 mm 385 W/m 2,9 C 8,7 C 4,8 km/h (1 Bft) 97 %
11.03.2017 11:20 9,1 C 8,7 C 9,1 C 63 % 1022,7 hPa 0,0 l/m 0,8 km/h (0 Bft) O-SO 103 10 min 0,000 mm 322 W/m 2,4 C 9,1 C 6,4 km/h (2 Bft) 97 %
11.03.2017 11:30 9,6 C 9,1 C 9,6 C 60 % 1022,6 hPa 0,0 l/m 1,5 km/h (1 Bft) O-NO 61 10 min 0,000 mm 578 W/m 2,2 C 9,6 C 8,0 km/h (2 Bft) 98 %
11.03.2017 11:40 9,9 C 9,6 C 9,9 C 59 % 1022,4 hPa 0,0 l/m 1,1 km/h (1 Bft) O-SO 103 10 min 0,000 mm 385 W/m 2,3 C 9,9 C 6,4 km/h (2 Bft) 97 %
11.03.2017 11:50 10,2 C 9,9 C 10,2 C 57 % 1022,4 hPa 0,0 l/m 1,3 km/h (1 Bft) NW 304 10 min 0,000 mm 490 W/m 2,1 C 10,2 C 9,7 km/h (2 Bft) 97 %
11.03.2017 12:00 10,3 C 10,2 C 10,4 C 56 % 1022,3 hPa 0,0 l/m 0,6 km/h (0 Bft) O 101 10 min 0,000 mm 346 W/m 1,9 C 10,3 C 6,4 km/h (2 Bft) 97 %
11.03.2017 12:10 10,4 C 10,3 C 10,4 C 58 % 1022,3 hPa 0,0 l/m 1,2 km/h (1 Bft) SO 135 10 min 0,228 mm 323 W/m 2,5 C 10,4 C 8,0 km/h (2 Bft) 97 %
11.03.2017 12:20 10,7 C 10,4 C 10,7 C 57 % 1022,2 hPa 0,0 l/m 0,0 km/h (0 Bft) O 98 10 min 0,000 mm 420 W/m 2,5 C 10,7 C 1,6 km/h (1 Bft) 97 %
11.03.2017 12:30 10,9 C 10,7 C 10,9 C 56 % 1022,1 hPa 0,0 l/m 0,5 km/h (0 Bft) O 92 10 min 0,000 mm 329 W/m 2,5 C 10,9 C 3,2 km/h (1 Bft) 97 %
11.03.2017 12:40 11,2 C 10,9 C 11,2 C 56 % 1021,8 hPa 0,0 l/m 0,9 km/h (0 Bft) O-NO 65 10 min 0,000 mm 691 W/m 2,8 C 11,2 C 6,4 km/h (2 Bft) 97 %
11.03.2017 12:50 11,6 C 11,2 C 11,6 C 48 % 1021,6 hPa 0,0 l/m 0,9 km/h (0 Bft) O 100 10 min 0,000 mm 675 W/m 1,0 C 11,6 C 6,4 km/h (2 Bft) 97 %
11.03.2017 13:00 11,9 C 11,6 C 11,9 C 47 % 1021,5 hPa 0,0 l/m 1,2 km/h (1 Bft) S 191 10 min 0,000 mm 309 W/m 1,0 C 11,9 C 11,3 km/h (2 Bft) 98 %
11.03.2017 13:10 12,1 C 11,9 C 12,1 C 45 % 1021,5 hPa 0,0 l/m 1,8 km/h (1 Bft) O 84 10 min 0,229 mm 515 W/m 0,5 C 12,1 C 9,7 km/h (2 Bft) 97 %
11.03.2017 13:20 12,2 C 12,1 C 12,2 C 44 % 1021,4 hPa 0,0 l/m 2,0 km/h (1 Bft) NO 49 10 min 0,000 mm 469 W/m 0,3 C 12,2 C 11,3 km/h (2 Bft) 98 %
11.03.2017 13:30 12,2 C 12,2 C 12,3 C 47 % 1021,2 hPa 0,0 l/m 2,1 km/h (1 Bft) N-NO 13 10 min 0,000 mm 531 W/m 1,2 C 12,2 C 9,7 km/h (2 Bft) 97 %
11.03.2017 13:40 12,3 C 12,2 C 12,3 C 42 % 1021,1 hPa 0,0 l/m 0,8 km/h (0 Bft) O-SO 111 10 min 0,000 mm 545 W/m -0,2 C 12,3 C 6,4 km/h (2 Bft) 97 %
11.03.2017 13:50 12,6 C 12,3 C 12,6 C 50 % 1020,9 hPa 0,0 l/m 0,1 km/h (0 Bft) O-NO 67 10 min 0,000 mm 455 W/m 2,5 C 12,6 C 3,2 km/h (1 Bft) 98 %
11.03.2017 14:00 12,7 C 12,6 C 12,7 C 48 % 1020,7 hPa 0,0 l/m 1,1 km/h (1 Bft) NO 44 10 min 0,254 mm 345 W/m 2,0 C 12,7 C 8,0 km/h (2 Bft) 97 %
11.03.2017 14:10 12,6 C 12,6 C 12,7 C 52 % 1020,6 hPa 0,0 l/m 0,3 km/h (0 Bft) NO 48 10 min 0,000 mm 294 W/m 3,0 C 12,6 C 8,0 km/h (2 Bft) 98 %
11.03.2017 14:20 12,5 C 12,4 C 12,6 C 47 % 1020,4 hPa 0,0 l/m 0,1 km/h (0 Bft) O-NO 70 10 min 0,000 mm 360 W/m 1,5 C 12,5 C 4,8 km/h (1 Bft) 97 %
11.03.2017 14:30 12,7 C 12,5 C 12,7 C 49 % 1020,2 hPa 0,0 l/m 0,4 km/h (0 Bft) O-SO 123 10 min 0,000 mm 422 W/m 2,3 C 12,7 C 6,4 km/h (2 Bft) 97 %
11.03.2017 14:40 13,1 C 12,7 C 13,1 C 48 % 1020,3 hPa 0,0 l/m 1,5 km/h (1 Bft) NO 37 10 min 0,000 mm 369 W/m 2,3 C 13,1 C 8,0 km/h (2 Bft) 98 %
11.03.2017 14:50 12,9 C 12,9 C 13,1 C 49 % 1020,2 hPa 0,0 l/m 0,1 km/h (0 Bft) NO 47 10 min 0,000 mm 237 W/m 2,5 C 12,9 C 4,8 km/h (1 Bft) 97 %
11.03.2017 15:00 12,9 C 12,9 C 12,9 C 48 % 1020,1 hPa 0,0 l/m 0,4 km/h (0 Bft) NO 39 0 min 0,178 mm 120 W/m 2,2 C 12,9 C 8,0 km/h (2 Bft) 98 %
11.03.2017 15:10 12,8 C 12,8 C 12,9 C 48 % 1020,0 hPa 0,0 l/m 0,5 km/h (0 Bft) O 101 0 min 0,000 mm 121 W/m 2,1 C 12,8 C 9,7 km/h (2 Bft) 97 %
11.03.2017 15:20 12,8 C 12,8 C 12,8 C 47 % 1019,8 hPa 0,0 l/m 1,4 km/h (1 Bft) O-SO 109 0 min 0,000 mm 118 W/m 1,8 C 12,8 C 11,3 km/h (2 Bft) 98 %
11.03.2017 15:30 12,8 C 12,8 C 12,8 C 47 % 1019,7 hPa 0,0 l/m 0,5 km/h (0 Bft) O-NO 63 0 min 0,000 mm 135 W/m 1,8 C 12,8 C 6,4 km/h (2 Bft) 97 %
11.03.2017 15:40 12,8 C 12,8 C 12,8 C 48 % 1019,6 hPa 0,0 l/m 0,3 km/h (0 Bft) SO 141 0 min 0,000 mm 144 W/m 2,1 C 12,8 C 8,0 km/h (2 Bft) 98 %
11.03.2017 15:50 12,7 C 12,7 C 12,8 C 48 % 1019,5 hPa 0,0 l/m 0,0 km/h (0 Bft) O-SO 107 10 min 0,000 mm 156 W/m 2,0 C 12,7 C 1,6 km/h (1 Bft) 97 %
11.03.2017 16:00 12,9 C 12,7 C 12,9 C 49 % 1019,6 hPa 0,0 l/m 0,2 km/h (0 Bft) NO 53 0 min 0,076 mm 137 W/m 2,5 C 12,9 C 6,4 km/h (2 Bft) 97 %
11.03.2017 16:10 13,0 C 12,9 C 13,0 C 50 % 1019,5 hPa 0,0 l/m 0,2 km/h (0 Bft) O-NO 73 0 min 0,000 mm 123 W/m 2,8 C 13,0 C 6,4 km/h (2 Bft) 98 %
11.03.2017 16:20 13,2 C 13,0 C 13,2 C 53 % 1019,5 hPa 0,0 l/m 0,0 km/h (0 Bft) O-NO 64 0 min 0,000 mm 123 W/m 3,8 C 13,2 C 1,6 km/h (1 Bft) 97 %
11.03.2017 16:30 13,2 C 13,2 C 13,2 C 47 % 1019,4 hPa 0,0 l/m 0,9 km/h (0 Bft) O 88 0 min 0,000 mm 102 W/m 2,1 C 13,2 C 8,0 km/h (2 Bft) 97 %
11.03.2017 16:40 13,1 C 13,1 C 13,2 C 46 % 1019,4 hPa 0,0 l/m 0,6 km/h (0 Bft) O-SO 103 0 min 0,000 mm 81 W/m 1,7 C 13,1 C 9,7 km/h (2 Bft) 97 %
11.03.2017 16:50 12,7 C 12,7 C 13,1 C 48 % 1019,4 hPa 0,0 l/m 0,6 km/h (0 Bft) O 98 0 min 0,000 mm 72 W/m 2,0 C 12,7 C 8,0 km/h (2 Bft) 97 %
11.03.2017 17:00 12,2 C 12,2 C 12,7 C 49 % 1019,3 hPa 0,0 l/m 1,5 km/h (1 Bft) O 96 0 min 0,051 mm 70 W/m 1,8 C 12,2 C 14,5 km/h (3 Bft) 98 %
11.03.2017 17:10 12,0 C 12,0 C 12,2 C 51 % 1019,3 hPa 0,0 l/m 0,0 km/h (0 Bft) O 82 0 min 0,000 mm 63 W/m 2,2 C 12,0 C 1,6 km/h (1 Bft) 97 %
11.03.2017 17:20 11,8 C 11,8 C 12,0 C 52 % 1019,2 hPa 0,0 l/m 0,0 km/h (0 Bft) O 82 0 min 0,000 mm 58 W/m 2,3 C 11,8 C 0,0 km/h (0 Bft) 98 %
11.03.2017 17:30 11,7 C 11,7 C 11,8 C 49 % 1019,1 hPa 0,0 l/m 0,0 km/h (0 Bft) O 84 0 min 0,000 mm 44 W/m 1,3 C 11,7 C 1,6 km/h (1 Bft) 97 %
11.03.2017 17:40 11,4 C 11,4 C 11,7 C 52 % 1019,0 hPa 0,0 l/m 0,0 km/h (0 Bft) O-NO 59 0 min 0,000 mm 32 W/m 1,9 C 11,4 C 1,6 km/h (1 Bft) 97 %
11.03.2017 17:50 11,0 C 11,0 C 11,4 C 53 % 1019,0 hPa 0,0 l/m 0,0 km/h (0 Bft) O-NO 62 0 min 0,000 mm 21 W/m 1,8 C 11,0 C 0,0 km/h (0 Bft) 97 %
11.03.2017 18:00 10,6 C 10,6 C 11,0 C 55 % 1019,0 hPa 0,0 l/m 0,2 km/h (0 Bft) NO 48 0 min 0,025 mm 14 W/m 1,9 C 10,6 C 4,8 km/h (1 Bft) 97 %
11.03.2017 18:10 10,2 C 10,2 C 10,6 C 55 % 1019,1 hPa 0,0 l/m 0,0 km/h (0 Bft) NO 52 0 min 0,000 mm 9 W/m 1,6 C 10,2 C 1,6 km/h (1 Bft) 98 %
11.03.2017 18:20 9,9 C 9,9 C 10,2 C 55 % 1019,2 hPa 0,0 l/m 0,9 km/h (0 Bft) O 96 0 min 0,000 mm 0 W/m 1,3 C 9,9 C 6,4 km/h (2 Bft) 97 %
11.03.2017 18:30 9,6 C 9,6 C 9,9 C 55 % 1019,2 hPa 0,0 l/m 0,0 km/h (0 Bft) O 93 0 min 0,000 mm 0 W/m 1,0 C 9,6 C 1,6 km/h (1 Bft) 97 %
11.03.2017 18:40 9,3 C 9,3 C 9,6 C 56 % 1019,4 hPa 0,0 l/m 0,1 km/h (0 Bft) S-SO 161 0 min 0,000 mm 0 W/m 1,0 C 9,3 C 3,2 km/h (1 Bft) 97 %
11.03.2017 18:50 9,1 C 9,1 C 9,3 C 56 % 1019,4 hPa 0,0 l/m 0,0 km/h (0 Bft) S-SO 157 0 min 0,000 mm 0 W/m 0,8 C 9,1 C 0,0 km/h (0 Bft) 97 %
11.03.2017 19:00 8,9 C 8,9 C 9,1 C 56 % 1019,4 hPa 0,0 l/m 0,0 km/h (0 Bft) S-SO 152 0 min 0,000 mm 0 W/m 0,6 C 8,9 C 1,6 km/h (1 Bft) 98 %
11.03.2017 19:10 8,7 C 8,7 C 8,9 C 56 % 1019,5 hPa 0,0 l/m 0,0 km/h (0 Bft) SO 141 0 min 0,000 mm 0 W/m 0,4 C 8,7 C 0,0 km/h (0 Bft) 98 %
11.03.2017 19:20 8,5 C 8,4 C 8,7 C 56 % 1019,5 hPa 0,0 l/m 0,3 km/h (0 Bft) O-SO 105 0 min 0,000 mm 0 W/m 0,2 C 8,5 C 6,4 km/h (2 Bft) 98 %
11.03.2017 19:30 8,3 C 8,3 C 8,5 C 57 % 1019,6 hPa 0,0 l/m 0,0 km/h (0 Bft) O-SO 107 0 min 0,000 mm 0 W/m 0,3 C 8,3 C 0,0 km/h (0 Bft) 97 %
11.03.2017 19:40 8,1 C 8,1 C 8,3 C 58 % 1019,5 hPa 0,0 l/m 0,0 km/h (0 Bft) O-SO 107 0 min 0,000 mm 0 W/m 0,3 C 8,1 C 0,0 km/h (0 Bft) 98 %
11.03.2017 19:50 7,7 C 7,7 C 8,1 C 63 % 1019,5 hPa 0,0 l/m 0,0 km/h (0 Bft) O-SO 107 0 min 0,000 mm 0 W/m 1,1 C 7,7 C 0,0 km/h (0 Bft) 97 %
11.03.2017 20:00 7,5 C 7,5 C 7,7 C 62 % 1019,5 hPa 0,0 l/m 0,0 km/h (0 Bft) O-SO 104 0 min 0,025 mm 0 W/m 0,7 C 7,5 C 1,6 km/h (1 Bft) 97 %
11.03.2017 20:10 7,3 C 7,3 C 7,5 C 63 % 1019,4 hPa 0,0 l/m 0,0 km/h (0 Bft) O 98 0 min 0,000 mm 0 W/m 0,7 C 7,3 C 1,6 km/h (1 Bft) 98 %
11.03.2017 20:20 7,2 C 7,2 C 7,3 C 64 % 1019,3 hPa 0,0 l/m 0,3 km/h (0 Bft) O 82 0 min 0,000 mm 0 W/m 0,9 C 7,2 C 4,8 km/h (1 Bft) 97 %
11.03.2017 20:30 7,2 C 7,2 C 7,2 C 64 % 1019,2 hPa 0,0 l/m 0,4 km/h (0 Bft) O-NO 67 0 min 0,000 mm 0 W/m 0,9 C 7,2 C 4,8 km/h (1 Bft) 97 %
11.03.2017 20:40 7,1 C 7,1 C 7,2 C 64 % 1019,3 hPa 0,0 l/m 1,2 km/h (1 Bft) NO 52 0 min 0,000 mm 0 W/m 0,8 C 7,1 C 8,0 km/h (2 Bft) 97 %
11.03.2017 20:50 7,0 C 7,0 C 7,1 C 65 % 1019,4 hPa 0,0 l/m 0,0 km/h (0 Bft) NO 45 0 min 0,000 mm 0 W/m 0,9 C 7,0 C 0,0 km/h (0 Bft) 98 %
11.03.2017 21:00 6,8 C 6,8 C 7,0 C 65 % 1019,4 hPa 0,0 l/m 1,1 km/h (1 Bft) O 88 0 min 0,026 mm 0 W/m 0,7 C 6,8 C 6,4 km/h (2 Bft) 97 %
11.03.2017 21:10 6,7 C 6,7 C 6,8 C 66 % 1019,3 hPa 0,0 l/m 0,0 km/h (0 Bft) O-NO 67 0 min 0,000 mm 0 W/m 0,8 C 6,7 C 4,8 km/h (1 Bft) 100 %
11.03.2017 21:20 6,6 C 6,6 C 6,7 C 67 % 1019,4 hPa 0,0 l/m 0,0 km/h (0 Bft) O-NO 67 0 min 0,000 mm 0 W/m 0,9 C 6,6 C 3,2 km/h (1 Bft) 100 %
11.03.2017 21:30 6,3 C 6,3 C 6,6 C 68 % 1019,5 hPa 0,0 l/m 0,0 km/h (0 Bft) N 0 0 min 0,000 mm 0 W/m 0,8 C 6,3 C 0,0 km/h (0 Bft) 100 %
11.03.2017 21:40 6,0 C 6,0 C 6,3 C 69 % 1019,6 hPa 0,0 l/m 0,0 km/h (0 Bft) N 0 0 min 0,000 mm 0 W/m 0,8 C 6,0 C 0,0 km/h (0 Bft) 100 %
11.03.2017 21:50 5,7 C 5,7 C 6,0 C 70 % 1019,7 hPa 0,0 l/m 0,0 km/h (0 Bft) NO 45 0 min 0,000 mm 0 W/m 0,7 C 5,7 C 3,2 km/h (1 Bft) 100 %
11.03.2017 22:00 5,3 C 5,3 C 5,7 C 71 % 1019,7 hPa 0,0 l/m 0,0 km/h (0 Bft) N 0 0 min 0,025 mm 0 W/m 0,5 C 5,3 C 0,0 km/h (0 Bft) 100 %
11.03.2017 22:10 5,2 C 5,2 C 5,3 C 71 % 1019,6 hPa 0,0 l/m 0,0 km/h (0 Bft) NO 45 0 min 0,000 mm 0 W/m 0,4 C 5,2 C 1,6 km/h (1 Bft) 100 %
11.03.2017 22:20 5,1 C 5,1 C 5,2 C 71 % 1019,6 hPa 0,0 l/m 0,0 km/h (0 Bft) NO 45 0 min 0,000 mm 0 W/m 0,3 C 5,1 C 1,6 km/h (1 Bft) 100 %
11.03.2017 22:30 5,0 C 5,0 C 5,1 C 72 % 1019,5 hPa 0,0 l/m 0,0 km/h (0 Bft) N 0 0 min 0,000 mm 0 W/m 0,4 C 5,0 C 0,0 km/h (0 Bft) 100 %
11.03.2017 22:40 4,9 C 4,9 C 5,0 C 72 % 1019,6 hPa 0,0 l/m 0,0 km/h (0 Bft) NO 45 0 min 0,000 mm 0 W/m 0,3 C 4,9 C 1,6 km/h (1 Bft) 100 %
11.03.2017 22:50 4,8 C 4,8 C 4,9 C 72 % 1019,5 hPa 0,0 l/m 0,0 km/h (0 Bft) NO 45 0 min 0,000 mm 0 W/m 0,2 C 4,8 C 1,6 km/h (1 Bft) 100 %
11.03.2017 23:00 4,8 C 4,8 C 4,8 C 72 % 1019,5 hPa 0,0 l/m 3,2 km/h (1 Bft) NO 45 0 min 0,025 mm 0 W/m 0,2 C 4,8 C 4,8 km/h (1 Bft) 100 %
11.03.2017 23:10 4,7 C 4,7 C 4,8 C 73 % 1019,5 hPa 0,0 l/m 1,6 km/h (1 Bft) NO 45 0 min 0,000 mm 0 W/m 0,3 C 4,7 C 8,0 km/h (2 Bft) 100 %
11.03.2017 23:20 4,6 C 4,6 C 4,7 C 73 % 1019,2 hPa 0,0 l/m 1,6 km/h (1 Bft) NO 45 0 min 0,000 mm 0 W/m 0,2 C 4,6 C 4,8 km/h (1 Bft) 100 %
11.03.2017 23:30 4,5 C 4,5 C 4,6 C 74 % 1019,2 hPa 0,0 l/m 0,0 km/h (0 Bft) NO 45 0 min 0,000 mm 0 W/m 0,3 C 4,5 C 4,8 km/h (1 Bft) 100 %
11.03.2017 23:40 4,4 C 4,3 C 4,5 C 74 % 1019,1 hPa 0,0 l/m 0,0 km/h (0 Bft) NO 45 0 min 0,000 mm 0 W/m 0,2 C 4,4 C 3,2 km/h (1 Bft) 100 %
11.03.2017 23:50 4,2 C 4,2 C 4,4 C 75 % 1019,0 hPa 0,0 l/m 0,0 km/h (0 Bft) NO 45 0 min 0,000 mm 0 W/m 0,2 C 4,2 C 4,8 km/h (1 Bft) 100 %
_ Min-Zeit 05:40 05:40 04:30 13:40 17:40 - 00:00 - - - - - 04:10 04:10 00:30 05:50
Minimum _ -1,3 C -1,3 C -1,2 C 42 % 1019,0 hPa - 0,0 km/h (0 Bft) - - - - - -2,5 C -1,2 C 0,0 km/h (0 Bft) 89 %
_ Max-Zeit 16:20 16:30 16:20 06:40 00:20 00:00 03:50 - - 08:10 14:00 12:40 16:20 16:20 17:00 01:00
Maximum _ 13,2 C 13,2 C 13,2 C 92 % 1026,6 hPa 0,0 l/m 3,2 km/h
NW (1 Bft)
- - 10 min 0,254 mm 691 W/m 3,8 C 13,2 C 14,5 km/h
O (3 Bft)
100 %
Durchschnitt _ 5,7 C 5,6 C 5,8 C 71 % 1022,2 hPa #0,0 l/m 0,5 km/h (0 Bft) NW - #7:00 h #1,498 mm 255 W/m 0,3 C 5,7 C 3,9 km/h (1 Bft) 99 %
PRIVATE WETTERSTATION BILLIGHEIM-ALLFELD - www.neckar-odenwald-wetter.de - Holger Sonntag